sensor_id;sensor_type;location;lat;lon;timestamp;pressure;altitude;pressure_sealevel;temperature;humidity
5703;BME280;2876;51.738;10.050;2023-12-14T00:04:47;98216.72;;;6.67;100.00
5703;BME280;2876;51.738;10.050;2023-12-14T00:10:49;98220.03;;;6.89;100.00
5703;BME280;2876;51.738;10.050;2023-12-14T00:16:52;98220.63;;;6.64;100.00
5703;BME280;2876;51.738;10.050;2023-12-14T00:22:54;98237.03;;;6.74;100.00
5703;BME280;2876;51.738;10.050;2023-12-14T00:28:56;98238.06;;;6.93;100.00
5703;BME280;2876;51.738;10.050;2023-12-14T00:35:03;98245.63;;;6.70;100.00
5703;BME280;2876;51.738;10.050;2023-12-14T00:41:05;98264.88;;;6.72;100.00
5703;BME280;2876;51.738;10.050;2023-12-14T00:47:07;98268.63;;;6.91;100.00
5703;BME280;2876;51.738;10.050;2023-12-14T00:53:09;98287.44;;;6.76;100.00
5703;BME280;2876;51.738;10.050;2023-12-14T00:59:11;98291.91;;;6.62;100.00
5703;BME280;2876;51.738;10.050;2023-12-14T01:05:13;98313.94;;;6.36;100.00
5703;BME280;2876;51.738;10.050;2023-12-14T01:11:15;98328.09;;;6.37;100.00
5703;BME280;2876;51.738;10.050;2023-12-14T01:17:17;98347.50;;;6.30;100.00
5703;BME280;2876;51.738;10.050;2023-12-14T01:23:20;98349.38;;;6.37;100.00
5703;BME280;2876;51.738;10.050;2023-12-14T01:29:22;98358.25;;;6.50;100.00
5703;BME280;2876;51.738;10.050;2023-12-14T01:35:24;98367.66;;;6.46;100.00
5703;BME280;2876;51.738;10.050;2023-12-14T01:41:27;98380.78;;;6.48;100.00
5703;BME280;2876;51.738;10.050;2023-12-14T01:47:29;98390.66;;;6.19;100.00
5703;BME280;2876;51.738;10.050;2023-12-14T01:53:31;98393.53;;;6.24;100.00
5703;BME280;2876;51.738;10.050;2023-12-14T01:59:33;98398.19;;;6.16;100.00
5703;BME280;2876;51.738;10.050;2023-12-14T02:05:36;98411.50;;;6.16;100.00
5703;BME280;2876;51.738;10.050;2023-12-14T02:11:38;98410.69;;;6.15;100.00
5703;BME280;2876;51.738;10.050;2023-12-14T02:17:40;98425.16;;;6.06;100.00
5703;BME280;2876;51.738;10.050;2023-12-14T02:23:46;98432.09;;;6.00;100.00
5703;BME280;2876;51.738;10.050;2023-12-14T02:29:48;98428.41;;;6.01;100.00
5703;BME280;2876;51.738;10.050;2023-12-14T02:35:50;98441.25;;;5.98;100.00
5703;BME280;2876;51.738;10.050;2023-12-14T02:41:52;98440.50;;;5.82;100.00
5703;BME280;2876;51.738;10.050;2023-12-14T02:47:54;98453.91;;;5.74;100.00
5703;BME280;2876;51.738;10.050;2023-12-14T02:53:56;98455.97;;;5.94;100.00
5703;BME280;2876;51.738;10.050;2023-12-14T02:59:59;98454.66;;;5.90;100.00
5703;BME280;2876;51.738;10.050;2023-12-14T03:06:01;98476.38;;;5.72;100.00
5703;BME280;2876;51.738;10.050;2023-12-14T03:12:04;98480.94;;;5.93;100.00
5703;BME280;2876;51.738;10.050;2023-12-14T03:18:06;98490.97;;;5.54;100.00
5703;BME280;2876;51.738;10.050;2023-12-14T03:24:08;98501.66;;;5.61;100.00
5703;BME280;2876;51.738;10.050;2023-12-14T03:30:11;98518.13;;;5.71;100.00
5703;BME280;2876;51.738;10.050;2023-12-14T03:36:13;98530.56;;;5.49;100.00
5703;BME280;2876;51.738;10.050;2023-12-14T03:42:15;98550.78;;;5.29;100.00
5703;BME280;2876;51.738;10.050;2023-12-14T03:48:17;98558.94;;;5.42;100.00
5703;BME280;2876;51.738;10.050;2023-12-14T03:54:19;98570.16;;;5.23;100.00
5703;BME280;2876;51.738;10.050;2023-12-14T04:00:21;98565.53;;;5.17;100.00
5703;BME280;2876;51.738;10.050;2023-12-14T04:06:23;98566.66;;;5.22;100.00
5703;BME280;2876;51.738;10.050;2023-12-14T04:12:25;98574.09;;;5.27;100.00
5703;BME280;2876;51.738;10.050;2023-12-14T04:18:27;98593.78;;;5.03;100.00
5703;BME280;2876;51.738;10.050;2023-12-14T04:24:30;98599.91;;;5.03;100.00
5703;BME280;2876;51.738;10.050;2023-12-14T04:30:32;98621.75;;;4.76;100.00
5703;BME280;2876;51.738;10.050;2023-12-14T04:36:34;98632.53;;;4.97;100.00
5703;BME280;2876;51.738;10.050;2023-12-14T04:42:36;98634.50;;;4.80;100.00
5703;BME280;2876;51.738;10.050;2023-12-14T04:48:38;98636.06;;;4.90;100.00
5703;BME280;2876;51.738;10.050;2023-12-14T04:54:40;98646.75;;;4.67;100.00
5703;BME280;2876;51.738;10.050;2023-12-14T05:00:44;98661.66;;;4.68;100.00
5703;BME280;2876;51.738;10.050;2023-12-14T05:06:46;98684.59;;;4.69;100.00
5703;BME280;2876;51.738;10.050;2023-12-14T05:12:47;98701.53;;;4.91;100.00
5703;BME280;2876;51.738;10.050;2023-12-14T05:18:50;98707.81;;;4.67;100.00
5703;BME280;2876;51.738;10.050;2023-12-14T05:24:52;98713.41;;;4.49;100.00
5703;BME280;2876;51.738;10.050;2023-12-14T05:30:54;98722.22;;;4.72;100.00
5703;BME280;2876;51.738;10.050;2023-12-14T05:36:56;98729.78;;;4.61;100.00
5703;BME280;2876;51.738;10.050;2023-12-14T05:42:58;98745.97;;;4.74;100.00
5703;BME280;2876;51.738;10.050;2023-12-14T05:49:00;98760.94;;;4.67;100.00
5703;BME280;2876;51.738;10.050;2023-12-14T05:55:03;98760.66;;;4.62;100.00
5703;BME280;2876;51.738;10.050;2023-12-14T06:01:06;98769.91;;;4.66;100.00
5703;BME280;2876;51.738;10.050;2023-12-14T06:07:08;98788.22;;;4.83;100.00
5703;BME280;2876;51.738;10.050;2023-12-14T06:13:10;98803.28;;;4.68;100.00
5703;BME280;2876;51.738;10.050;2023-12-14T06:19:12;98804.56;;;4.72;100.00
5703;BME280;2876;51.738;10.050;2023-12-14T06:25:14;98809.13;;;4.64;100.00
5703;BME280;2876;51.738;10.050;2023-12-14T06:31:17;98815.03;;;4.74;100.00
5703;BME280;2876;51.738;10.050;2023-12-14T06:37:19;98835.44;;;4.73;100.00
5703;BME280;2876;51.738;10.050;2023-12-14T06:43:21;98845.09;;;4.66;100.00
5703;BME280;2876;51.738;10.050;2023-12-14T06:49:24;98847.66;;;4.51;100.00
5703;BME280;2876;51.738;10.050;2023-12-14T06:55:26;98863.38;;;4.61;100.00
5703;BME280;2876;51.738;10.050;2023-12-14T07:01:28;98871.91;;;4.48;100.00
5703;BME280;2876;51.738;10.050;2023-12-14T07:07:30;98868.25;;;4.49;100.00
5703;BME280;2876;51.738;10.050;2023-12-14T07:13:32;98864.44;;;4.44;100.00
5703;BME280;2876;51.738;10.050;2023-12-14T07:19:34;98876.91;;;4.43;100.00
5703;BME280;2876;51.738;10.050;2023-12-14T07:25:37;98883.34;;;4.49;100.00
5703;BME280;2876;51.738;10.050;2023-12-14T07:31:39;98899.47;;;4.39;100.00
5703;BME280;2876;51.738;10.050;2023-12-14T07:37:41;98924.97;;;4.56;100.00
5703;BME280;2876;51.738;10.050;2023-12-14T07:43:43;98939.09;;;4.49;100.00
5703;BME280;2876;51.738;10.050;2023-12-14T07:49:45;98953.06;;;4.43;100.00
5703;BME280;2876;51.738;10.050;2023-12-14T07:55:47;98964.50;;;4.60;100.00
5703;BME280;2876;51.738;10.050;2023-12-14T08:01:49;98966.16;;;4.44;100.00
5703;BME280;2876;51.738;10.050;2023-12-14T08:07:51;98974.44;;;4.49;100.00
5703;BME280;2876;51.738;10.050;2023-12-14T08:13:54;98995.03;;;4.47;100.00
5703;BME280;2876;51.738;10.050;2023-12-14T08:19:56;98996.81;;;4.71;100.00
5703;BME280;2876;51.738;10.050;2023-12-14T08:25:58;99007.63;;;4.62;100.00
5703;BME280;2876;51.738;10.050;2023-12-14T08:32:00;99023.03;;;4.74;100.00
5703;BME280;2876;51.738;10.050;2023-12-14T08:38:02;99035.38;;;4.59;100.00
5703;BME280;2876;51.738;10.050;2023-12-14T08:44:04;99053.91;;;4.75;100.00
5703;BME280;2876;51.738;10.050;2023-12-14T08:50:07;99064.22;;;4.70;100.00
5703;BME280;2876;51.738;10.050;2023-12-14T08:56:10;99080.34;;;4.44;100.00
5703;BME280;2876;51.738;10.050;2023-12-14T09:02:12;99087.16;;;4.47;100.00
5703;BME280;2876;51.738;10.050;2023-12-14T09:08:15;99106.88;;;4.52;100.00
5703;BME280;2876;51.738;10.050;2023-12-14T09:14:17;99126.81;;;4.65;100.00
5703;BME280;2876;51.738;10.050;2023-12-14T09:20:19;99136.59;;;4.31;100.00
5703;BME280;2876;51.738;10.050;2023-12-14T09:26:21;99146.84;;;4.26;100.00
5703;BME280;2876;51.738;10.050;2023-12-14T09:32:24;99150.31;;;4.11;100.00
5703;BME280;2876;51.738;10.050;2023-12-14T09:38:26;99162.06;;;4.08;100.00
5703;BME280;2876;51.738;10.050;2023-12-14T09:44:29;99178.72;;;4.18;100.00
5703;BME280;2876;51.738;10.050;2023-12-14T09:50:32;99182.19;;;4.19;100.00
5703;BME280;2876;51.738;10.050;2023-12-14T09:56:35;99187.84;;;4.24;100.00
5703;BME280;2876;51.738;10.050;2023-12-14T10:02:46;99185.53;;;4.37;100.00
5703;BME280;2876;51.738;10.050;2023-12-14T10:08:55;99207.28;;;4.41;100.00
5703;BME280;2876;51.738;10.050;2023-12-14T10:15:01;99212.25;;;4.36;100.00
5703;BME280;2876;51.738;10.050;2023-12-14T10:21:07;99216.22;;;4.40;100.00
5703;BME280;2876;51.738;10.050;2023-12-14T10:27:09;99221.41;;;4.41;100.00
5703;BME280;2876;51.738;10.050;2023-12-14T10:33:12;99227.22;;;4.53;100.00
5703;BME280;2876;51.738;10.050;2023-12-14T10:39:17;99222.88;;;4.44;100.00
5703;BME280;2876;51.738;10.050;2023-12-14T10:45:22;99238.66;;;4.45;100.00
5703;BME280;2876;51.738;10.050;2023-12-14T10:51:28;99233.22;;;4.55;100.00
5703;BME280;2876;51.738;10.050;2023-12-14T10:57:31;99242.50;;;4.51;100.00
5703;BME280;2876;51.738;10.050;2023-12-14T11:03:34;99246.84;;;4.68;100.00
5703;BME280;2876;51.738;10.050;2023-12-14T11:09:37;99259.47;;;4.74;100.00
5703;BME280;2876;51.738;10.050;2023-12-14T11:15:46;99274.94;;;4.95;100.00
5703;BME280;2876;51.738;10.050;2023-12-14T11:28:04;99288.34;;;4.86;100.00
5703;BME280;2876;51.738;10.050;2023-12-14T11:34:06;99293.84;;;4.84;100.00
5703;BME280;2876;51.738;10.050;2023-12-14T11:40:09;99307.06;;;4.68;100.00
5703;BME280;2876;51.738;10.050;2023-12-14T11:46:12;99316.41;;;4.64;100.00
5703;BME280;2876;51.738;10.050;2023-12-14T11:52:18;99323.25;;;4.82;100.00
5703;BME280;2876;51.738;10.050;2023-12-14T11:58:20;99321.06;;;4.78;100.00
5703;BME280;2876;51.738;10.050;2023-12-14T12:04:23;99323.22;;;4.74;100.00
5703;BME280;2876;51.738;10.050;2023-12-14T12:10:25;99326.69;;;4.75;100.00
5703;BME280;2876;51.738;10.050;2023-12-14T12:16:27;99337.19;;;4.84;100.00
5703;BME280;2876;51.738;10.050;2023-12-14T12:22:29;99330.56;;;4.89;100.00
5703;BME280;2876;51.738;10.050;2023-12-14T12:28:31;99345.56;;;5.14;100.00
5703;BME280;2876;51.738;10.050;2023-12-14T12:34:33;99341.56;;;5.10;100.00
5703;BME280;2876;51.738;10.050;2023-12-14T12:40:35;99340.22;;;5.30;100.00
5703;BME280;2876;51.738;10.050;2023-12-14T12:46:38;99357.00;;;5.31;99.75
5703;BME280;2876;51.738;10.050;2023-12-14T12:52:40;99362.81;;;5.26;98.90
5703;BME280;2876;51.738;10.050;2023-12-14T12:58:44;99369.44;;;4.98;100.00
5703;BME280;2876;51.738;10.050;2023-12-14T13:04:46;99371.75;;;4.93;99.56
5703;BME280;2876;51.738;10.050;2023-12-14T13:10:48;99390.13;;;4.70;100.00
5703;BME280;2876;51.738;10.050;2023-12-14T13:16:56;99406.34;;;4.67;100.00
5703;BME280;2876;51.738;10.050;2023-12-14T13:23:00;99412.44;;;4.51;100.00
5703;BME280;2876;51.738;10.050;2023-12-14T13:29:02;99410.41;;;4.45;100.00
5703;BME280;2876;51.738;10.050;2023-12-14T13:35:05;99425.69;;;4.43;100.00
5703;BME280;2876;51.738;10.050;2023-12-14T13:41:08;99427.25;;;4.27;100.00
5703;BME280;2876;51.738;10.050;2023-12-14T13:47:11;99438.19;;;4.58;100.00
5703;BME280;2876;51.738;10.050;2023-12-14T13:53:13;99448.09;;;4.48;100.00
5703;BME280;2876;51.738;10.050;2023-12-14T13:59:18;99461.03;;;4.43;100.00
5703;BME280;2876;51.738;10.050;2023-12-14T14:05:21;99473.88;;;4.56;100.00
5703;BME280;2876;51.738;10.050;2023-12-14T14:11:23;99474.91;;;4.63;100.00
5703;BME280;2876;51.738;10.050;2023-12-14T14:17:26;99485.28;;;4.48;100.00
5703;BME280;2876;51.738;10.050;2023-12-14T14:23:28;99499.91;;;4.52;100.00
5703;BME280;2876;51.738;10.050;2023-12-14T14:29:30;99519.81;;;4.48;100.00
5703;BME280;2876;51.738;10.050;2023-12-14T14:35:32;99530.53;;;4.39;100.00
5703;BME280;2876;51.738;10.050;2023-12-14T14:41:35;99540.44;;;4.54;100.00
5703;BME280;2876;51.738;10.050;2023-12-14T14:47:40;99544.09;;;4.36;100.00
5703;BME280;2876;51.738;10.050;2023-12-14T14:53:43;99555.88;;;4.33;100.00
5703;BME280;2876;51.738;10.050;2023-12-14T14:59:45;99578.03;;;4.24;100.00
5703;BME280;2876;51.738;10.050;2023-12-14T15:05:47;99585.84;;;4.25;100.00
5703;BME280;2876;51.738;10.050;2023-12-14T15:11:49;99598.28;;;4.25;100.00
5703;BME280;2876;51.738;10.050;2023-12-14T15:17:51;99601.09;;;4.41;100.00
5703;BME280;2876;51.738;10.050;2023-12-14T15:23:53;99613.81;;;4.38;100.00
5703;BME280;2876;51.738;10.050;2023-12-14T15:29:55;99639.47;;;4.47;100.00
5703;BME280;2876;51.738;10.050;2023-12-14T15:35:57;99639.81;;;4.70;100.00
5703;BME280;2876;51.738;10.050;2023-12-14T15:42:00;99650.84;;;4.57;100.00
5703;BME280;2876;51.738;10.050;2023-12-14T15:48:02;99651.56;;;4.67;100.00
5703;BME280;2876;51.738;10.050;2023-12-14T15:54:04;99658.19;;;4.63;100.00
5703;BME280;2876;51.738;10.050;2023-12-14T16:00:07;99661.75;;;4.54;100.00
5703;BME280;2876;51.738;10.050;2023-12-14T16:06:10;99675.34;;;4.51;100.00
5703;BME280;2876;51.738;10.050;2023-12-14T16:12:12;99682.50;;;4.50;100.00
5703;BME280;2876;51.738;10.050;2023-12-14T16:18:14;99688.84;;;4.75;100.00
5703;BME280;2876;51.738;10.050;2023-12-14T16:24:17;99694.06;;;4.67;100.00
5703;BME280;2876;51.738;10.050;2023-12-14T16:30:19;99696.16;;;4.55;100.00
5703;BME280;2876;51.738;10.050;2023-12-14T16:36:21;99712.75;;;4.75;100.00
5703;BME280;2876;51.738;10.050;2023-12-14T16:42:24;99725.91;;;4.59;100.00
5703;BME280;2876;51.738;10.050;2023-12-14T16:48:27;99731.81;;;4.53;100.00
5703;BME280;2876;51.738;10.050;2023-12-14T16:54:29;99745.00;;;4.63;100.00
5703;BME280;2876;51.738;10.050;2023-12-14T17:00:31;99758.59;;;4.60;100.00
5703;BME280;2876;51.738;10.050;2023-12-14T17:06:33;99777.78;;;4.53;100.00
5703;BME280;2876;51.738;10.050;2023-12-14T17:12:35;99773.09;;;4.65;100.00
5703;BME280;2876;51.738;10.050;2023-12-14T17:18:37;99784.75;;;4.37;100.00
5703;BME280;2876;51.738;10.050;2023-12-14T17:24:39;99794.22;;;4.39;100.00
5703;BME280;2876;51.738;10.050;2023-12-14T17:30:41;99804.13;;;4.47;100.00
5703;BME280;2876;51.738;10.050;2023-12-14T17:36:44;99804.94;;;4.47;100.00
5703;BME280;2876;51.738;10.050;2023-12-14T17:42:45;99824.56;;;4.64;100.00
5703;BME280;2876;51.738;10.050;2023-12-14T17:48:47;99821.06;;;4.64;100.00
5703;BME280;2876;51.738;10.050;2023-12-14T17:54:49;99837.31;;;4.33;100.00
5703;BME280;2876;51.738;10.050;2023-12-14T18:00:52;99850.19;;;4.28;100.00
5703;BME280;2876;51.738;10.050;2023-12-14T18:06:54;99859.34;;;4.43;100.00
5703;BME280;2876;51.738;10.050;2023-12-14T18:12:56;99866.50;;;4.33;100.00
5703;BME280;2876;51.738;10.050;2023-12-14T18:19:04;99871.97;;;4.31;100.00
5703;BME280;2876;51.738;10.050;2023-12-14T18:25:07;99873.81;;;4.21;100.00
5703;BME280;2876;51.738;10.050;2023-12-14T18:31:10;99888.75;;;4.22;100.00
5703;BME280;2876;51.738;10.050;2023-12-14T18:37:12;99890.69;;;4.30;100.00
5703;BME280;2876;51.738;10.050;2023-12-14T18:43:16;99904.88;;;4.11;100.00
5703;BME280;2876;51.738;10.050;2023-12-14T18:49:18;99925.63;;;4.25;100.00
5703;BME280;2876;51.738;10.050;2023-12-14T18:55:20;99937.50;;;4.31;100.00
5703;BME280;2876;51.738;10.050;2023-12-14T19:01:22;99943.63;;;4.41;100.00
5703;BME280;2876;51.738;10.050;2023-12-14T19:07:24;99953.16;;;4.34;100.00
5703;BME280;2876;51.738;10.050;2023-12-14T19:13:27;99951.88;;;4.38;100.00
5703;BME280;2876;51.738;10.050;2023-12-14T19:19:29;99962.44;;;4.11;100.00
5703;BME280;2876;51.738;10.050;2023-12-14T19:25:31;99970.00;;;3.96;100.00
5703;BME280;2876;51.738;10.050;2023-12-14T19:31:33;99990.34;;;4.24;100.00
5703;BME280;2876;51.738;10.050;2023-12-14T19:37:35;100003.63;;;3.86;100.00
5703;BME280;2876;51.738;10.050;2023-12-14T19:43:38;100000.16;;;3.75;100.00
5703;BME280;2876;51.738;10.050;2023-12-14T19:49:41;100006.69;;;3.71;100.00
5703;BME280;2876;51.738;10.050;2023-12-14T19:55:43;100032.66;;;3.68;100.00
5703;BME280;2876;51.738;10.050;2023-12-14T20:01:45;100030.00;;;3.58;100.00
5703;BME280;2876;51.738;10.050;2023-12-14T20:07:47;100037.00;;;3.78;100.00
5703;BME280;2876;51.738;10.050;2023-12-14T20:13:49;100064.13;;;4.01;100.00
5703;BME280;2876;51.738;10.050;2023-12-14T20:19:51;100067.19;;;4.06;100.00
5703;BME280;2876;51.738;10.050;2023-12-14T20:25:53;100075.72;;;4.10;100.00
5703;BME280;2876;51.738;10.050;2023-12-14T20:31:55;100075.00;;;3.98;100.00
5703;BME280;2876;51.738;10.050;2023-12-14T20:37:58;100072.22;;;4.00;100.00
5703;BME280;2876;51.738;10.050;2023-12-14T20:44:00;100075.56;;;4.02;100.00
5703;BME280;2876;51.738;10.050;2023-12-14T20:50:03;100093.72;;;3.97;100.00
5703;BME280;2876;51.738;10.050;2023-12-14T20:56:06;100084.50;;;4.01;100.00
5703;BME280;2876;51.738;10.050;2023-12-14T21:02:08;100096.53;;;3.95;100.00
5703;BME280;2876;51.738;10.050;2023-12-14T21:08:11;100107.16;;;3.95;100.00
5703;BME280;2876;51.738;10.050;2023-12-14T21:14:13;100115.66;;;4.08;100.00
5703;BME280;2876;51.738;10.050;2023-12-14T21:20:17;100108.69;;;4.17;100.00
5703;BME280;2876;51.738;10.050;2023-12-14T21:26:19;100120.13;;;4.08;100.00
5703;BME280;2876;51.738;10.050;2023-12-14T21:32:22;100119.03;;;4.11;100.00
5703;BME280;2876;51.738;10.050;2023-12-14T21:38:25;100120.00;;;4.10;100.00
5703;BME280;2876;51.738;10.050;2023-12-14T21:44:27;100118.88;;;4.12;100.00
5703;BME280;2876;51.738;10.050;2023-12-14T21:50:29;100124.75;;;4.16;100.00
5703;BME280;2876;51.738;10.050;2023-12-14T21:56:31;100133.41;;;4.08;100.00
5703;BME280;2876;51.738;10.050;2023-12-14T22:02:33;100141.66;;;4.15;100.00
5703;BME280;2876;51.738;10.050;2023-12-14T22:08:35;100147.66;;;4.07;100.00
5703;BME280;2876;51.738;10.050;2023-12-14T22:14:37;100157.59;;;4.05;100.00
5703;BME280;2876;51.738;10.050;2023-12-14T22:20:39;100159.00;;;4.09;100.00
5703;BME280;2876;51.738;10.050;2023-12-14T22:26:41;100166.63;;;4.02;100.00
5703;BME280;2876;51.738;10.050;2023-12-14T22:32:43;100169.69;;;3.98;100.00
5703;BME280;2876;51.738;10.050;2023-12-14T22:38:45;100167.63;;;4.01;100.00
5703;BME280;2876;51.738;10.050;2023-12-14T22:44:47;100185.38;;;4.11;100.00
5703;BME280;2876;51.738;10.050;2023-12-14T22:50:49;100195.44;;;4.07;100.00
5703;BME280;2876;51.738;10.050;2023-12-14T22:56:51;100213.03;;;4.08;100.00
5703;BME280;2876;51.738;10.050;2023-12-14T23:02:55;100215.81;;;4.06;100.00
5703;BME280;2876;51.738;10.050;2023-12-14T23:08:57;100230.19;;;4.04;100.00
5703;BME280;2876;51.738;10.050;2023-12-14T23:15:01;100232.38;;;3.89;100.00
5703;BME280;2876;51.738;10.050;2023-12-14T23:21:04;100240.94;;;4.02;100.00
5703;BME280;2876;51.738;10.050;2023-12-14T23:27:07;100249.63;;;4.04;100.00
5703;BME280;2876;51.738;10.050;2023-12-14T23:33:09;100251.72;;;4.01;100.00
5703;BME280;2876;51.738;10.050;2023-12-14T23:39:11;100247.06;;;3.93;100.00
5703;BME280;2876;51.738;10.050;2023-12-14T23:45:13;100248.88;;;3.93;100.00
5703;BME280;2876;51.738;10.050;2023-12-14T23:51:15;100256.94;;;3.81;100.00
5703;BME280;2876;51.738;10.050;2023-12-14T23:57:17;100264.03;;;3.81;100.00
